Koningsborg — PDHI — position and weather

sailwx.info

Track history (hours):
 
Tides and Currents Weather Stations Pressure Air Temp Water Temp Dewpoint Dewpoint Depression Visibility Wind Speed Wind Dir Waves Ship Positions

Koningsborg

Last reported at 2017-Sep-14 20:47 UTC. Time now 2017-Sep-23 07:44 UTC.
Position N 49°36' W 003°55'.
Warning: this ship's position is 8 days out of date.

Length 130 m; draft 7.7 m.

Type: Cargo ship. MMSI: 246388000.

Date/timePositionNaut miles runAvg speedWind from/ knotsBaromVisibWave heightAir tempDewpointWater temp
2017-Sep-14 20:47N 49°36' W 003°55'310.3
2017-Sep-14 20:30N 49°38' W 003°51'510.5
2017-Sep-14 20:00N 49°40' W 003°44'710.8
2017-Sep-14 19:19N 49°44' W 003°34'310.8
2017-Sep-14 19:00N 49°46' W 003°30'510.7
2017-Sep-14 18:30N 49°48' W 003°22'510.6
2017-Sep-14 18:00N 49°51' W 003°15'710.4
2017-Sep-14 17:22N 49°54' W 003°06'410.0
2017-Sep-14 17:00N 49°56' W 003°01'5 9.7
2017-Sep-14 16:30N 49°58' W 002°55'43 8.2
2017-Sep-14 11:15N 50°11' W 001°51'2 8.7
2017-Sep-14 11:00N 50°12' W 001°48'5 9.1
2017-Sep-14 10:28N 50°13' W 001°40'810.0
2017-Sep-14 09:38N 50°16' W 001°28'210.4
2017-Sep-14 09:29N 50°16' W 001°26'4311.2
2017-Sep-14 05:39N 50°28' W 000°21'210.4
2017-Sep-14 05:30N 50°29' W 000°19'510.1
2017-Sep-14 05:00N 50°30' W 000°12'5 9.7
2017-Sep-14 04:30N 50°32' W 000°04'5 9.2
2017-Sep-14 04:00N 50°33' E 000°03'4 9.0
2017-Sep-14 03:30N 50°34' E 000°10'4 8.6
2017-Sep-14 02:59N 50°35' E 000°16'4 8.4
2017-Sep-14 02:30N 50°36' E 000°23'4 8.4
2017-Sep-14 02:00N 50°37' E 000°29'4 8.8
2017-Sep-14 01:30N 50°39' E 000°36'5 9.1
2017-Sep-14 01:00N 50°41' E 000°42'5 9.6
2017-Sep-14 00:30N 50°44' E 000°48'510.1
2017-Sep-14 00:00N 50°47' E 000°54'510.6
2017-Sep-13 23:30N 50°50' E 001°01'911.1
2017-Sep-13 22:42N 50°56' E 001°12'211.2
2017-Sep-13 22:30N 50°57' E 001°15'611.1
2017-Sep-13 22:00N 51°01' E 001°21'510.6
2017-Sep-13 21:30N 51°04' E 001°28'5 9.7
2017-Sep-13 21:00N 51°07' E 001°33'4 9.0
2017-Sep-13 20:30N 51°10' E 001°39'4 8.7
2017-Sep-13 20:00N 51°13' E 001°44'4 8.6
2017-Sep-13 19:30N 51°17' E 001°48'4 8.6
2017-Sep-13 19:00N 51°21' E 001°50'4 8.7
2017-Sep-13 18:30N 51°25' E 001°53'4 8.7
2017-Sep-13 18:00N 51°29' E 001°56'4 8.8
2017-Sep-13 17:30N 51°33' E 001°59'5 9.1
2017-Sep-13 17:00N 51°37' E 002°02'5 9.7
2017-Sep-13 16:30N 51°41' E 002°05'510.2
2017-Sep-13 15:59N 51°46' E 002°08'  
2017-Sep-11 09:48N 57°47' E 010°30'3 9.2
2017-Sep-11 09:30N 57°48' E 010°35'4 8.9
2017-Sep-11 09:00N 57°48' E 010°43'5 9.8
2017-Sep-11 08:28N 57°47' E 010°53'5 9.9
2017-Sep-11 08:00N 57°45' E 011°01'5 9.8
2017-Sep-11 07:30N 57°43' E 011°09'5 9.6
2017-Sep-11 07:00N 57°41' E 011°18'510.5
2017-Sep-11 06:30N 57°39' E 011°26'611.5
2017-Sep-11 06:00N 57°36' E 011°36'5 9.0
2017-Sep-11 05:30N 57°39' E 011°43'3 4.9
2017-Sep-11 04:59N 57°40' E 011°47'0 0.0
2017-Sep-11 04:29N 57°40' E 011°47'0 0.0
2017-Sep-11 03:59N 57°40' E 011°47'0 0.1
2017-Sep-11 03:29N 57°40' E 011°47'0 0.0
2017-Sep-11 02:59N 57°40' E 011°47'0 0.0
2017-Sep-11 02:30N 57°40' E 011°47'0 0.0
2017-Sep-11 01:59N 57°40' E 011°47'0 0.0
2017-Sep-11 01:29N 57°40' E 011°47'0 0.0
2017-Sep-11 00:59N 57°40' E 011°47'0 0.0
2017-Sep-11 00:29N 57°40' E 011°47'0 0.0
2017-Sep-10 23:59N 57°40' E 011°47'0 0.1
2017-Sep-10 23:29N 57°40' E 011°47'2 4.9
2017-Sep-10 23:01N 57°39' E 011°43'510.3
2017-Sep-10 22:31N 57°35' E 011°39'4 8.7
2017-Sep-10 22:00N 57°30' E 011°38'611.6
2017-Sep-10 21:30N 57°24' E 011°38'611.4
2017-Sep-10 21:01N 57°19' E 011°39'611.5
2017-Sep-10 20:29N 57°13' E 011°39'511.2
2017-Sep-10 20:00N 57°07' E 011°40'610.9
2017-Sep-10 19:30N 57°02' E 011°44'11110.2
2017-Sep-10 08:39N 55°13' E 011°06'310.8
2017-Sep-10 08:23N 55°11' E 011°04'410.8
2017-Sep-10 08:01N 55°07' E 011°03'611.1
2017-Sep-10 07:31N 55°01' E 011°02'510.3
2017-Sep-10 07:00N 54°57' E 010°57'510.2
2017-Sep-10 06:31N 54°52' E 010°53'510.2
2017-Sep-10 06:00N 54°47' E 010°52'510.8
2017-Sep-10 05:30N 54°42' E 010°54'611.1
2017-Sep-10 05:00N 54°39' E 011°02'510.6
2017-Sep-10 04:31N 54°36' E 011°10'510.8
2017-Sep-10 04:00N 54°34' E 011°18'510.7
2017-Sep-10 03:31N 54°32' E 011°26'510.8
2017-Sep-10 03:01N 54°29' E 011°35'510.9
2017-Sep-10 02:31N 54°27' E 011°43'510.4
2017-Sep-10 02:00N 54°26' E 011°52'510.3
2017-Sep-10 01:31N 54°26' E 012°01'510.0
2017-Sep-10 01:01N 54°27' E 012°10'510.1
2017-Sep-10 00:31N 54°32' E 012°13'510.6
2017-Sep-10 00:01N 54°37' E 012°16'5610.6
2017-Sep-09 18:44N 55°01' E 013°44'210.5
2017-Sep-09 18:30N 55°01' E 013°48'510.3
2017-Sep-09 18:00N 55°03' E 013°57'510.2
2017-Sep-09 17:30N 55°05' E 014°04'510.4
2017-Sep-09 17:00N 55°09' E 014°11'510.7
2017-Sep-09 16:30N 55°13' E 014°17'510.5
2017-Sep-09 16:01N 55°17' E 014°23'510.6
2017-Sep-09 15:30N 55°21' E 014°29'510.5
2017-Sep-09 15:00N 55°25' E 014°35'510.3
2017-Sep-09 14:30N 55°28' E 014°42'510.6
2017-Sep-09 14:00N 55°31' E 014°50'611.0
2017-Sep-09 13:30N 55°34' E 014°58'611.1
2017-Sep-09 13:00N 55°37' E 015°07'511.0
2017-Sep-09 12:31N 55°39' E 015°15'510.8
2017-Sep-09 12:01N 55°42' E 015°24'510.8
2017-Sep-09 11:31N 55°45' E 015°32'510.9
2017-Sep-09 11:01N 55°47' E 015°40'511.0
2017-Sep-09 10:31N 55°50' E 015°48'611.3
2017-Sep-09 10:01N 55°53' E 015°57'611.2
2017-Sep-09 09:31N 55°56' E 016°06'511.0
2017-Sep-09 09:01N 55°59' E 016°14'611.1
2017-Sep-09 08:30N 56°02' E 016°23'611.2
2017-Sep-09 08:01N 56°05' E 016°31'510.9
2017-Sep-09 07:31N 56°08' E 016°39'20510.2
2017-Sep-08 11:22N 59°23' E 018°35'410.8
2017-Sep-08 11:00N 59°26' E 018°29'2 4.9
2017-Sep-08 10:30N 59°24' E 018°26'3 5.7
2017-Sep-08 10:00N 59°22' E 018°24'5 9.7
2017-Sep-08 09:30N 59°21' E 018°14'4 7.3
2017-Sep-08 09:01N 59°21' E 018°07'0 0.0
2017-Sep-08 08:29N 59°21' E 018°07'0 0.0
2017-Sep-08 07:59N 59°21' E 018°07'0 0.0
2017-Sep-08 07:30N 59°21' E 018°07'0 0.0
2017-Sep-08 07:00N 59°21' E 018°07'0 0.0
2017-Sep-08 06:21N 59°21' E 018°07'0 0.0
2017-Sep-08 05:59N 59°21' E 018°07'0 0.0
2017-Sep-08 05:28N 59°21' E 018°07'0 0.0
2017-Sep-08 04:55N 59°21' E 018°07'0 0.0
2017-Sep-08 04:19N 59°21' E 018°07'0 0.0
2017-Sep-08 03:49N 59°21' E 018°07'0 0.0
2017-Sep-08 03:22N 59°21' E 018°07'0 0.0
2017-Sep-08 02:58N 59°21' E 018°07'0 0.0
2017-Sep-08 02:22N 59°21' E 018°07'0 0.0
2017-Sep-08 01:59N 59°21' E 018°07'0 0.0
2017-Sep-08 01:29N 59°21' E 018°07'0 0.0
2017-Sep-08 00:59N 59°21' E 018°07'0 0.0
2017-Sep-08 00:29N 59°21' E 018°07'0 0.0
2017-Sep-07 23:59N 59°21' E 018°07'0 0.0
2017-Sep-07 23:29N 59°21' E 018°07'0 0.0
2017-Sep-07 22:59N 59°21' E 018°07'0 0.0
2017-Sep-07 22:29N 59°21' E 018°07'0 0.0
2017-Sep-07 21:59N 59°21' E 018°07'0 0.0
2017-Sep-07 21:29N 59°21' E 018°07'0 0.0
2017-Sep-07 20:59N 59°21' E 018°07'0 0.0
2017-Sep-07 20:29N 59°21' E 018°07'0 0.0
2017-Sep-07 19:59N 59°21' E 018°07'0 0.0
2017-Sep-07 19:28N 59°21' E 018°07'0 0.0
2017-Sep-07 18:58N 59°21' E 018°07'0 0.0
2017-Sep-07 18:28N 59°21' E 018°07'0 0.0
2017-Sep-07 17:59N 59°21' E 018°07'0 0.0
2017-Sep-07 17:17N 59°21' E 018°07'0 0.0
2017-Sep-07 17:01N 59°21' E 018°07'0 0.0
2017-Sep-07 16:30N 59°21' E 018°07'0 0.0
2017-Sep-07 16:00N 59°21' E 018°07'0 0.0
2017-Sep-07 15:25N 59°21' E 018°07'0 0.0
2017-Sep-07 15:00N 59°21' E 018°07'0 0.0
2017-Sep-07 14:13N 59°21' E 018°07'0 0.0
2017-Sep-07 13:55N 59°21' E 018°07'0 0.0
2017-Sep-07 13:25N 59°21' E 018°07'0 0.0
2017-Sep-07 12:58N 59°21' E 018°07'0 0.0
2017-Sep-07 12:22N 59°21' E 018°07'0 0.0
2017-Sep-07 11:52N 59°21' E 018°07'0 0.0
2017-Sep-07 11:28N 59°21' E 018°07'0 0.0
2017-Sep-07 10:52N 59°21' E 018°07'0 0.0
2017-Sep-07 10:28N 59°21' E 018°07'0 0.0
2017-Sep-07 09:58N 59°21' E 018°07'0 0.0
2017-Sep-07 09:22N 59°21' E 018°07'0 0.0
2017-Sep-07 08:58N 59°21' E 018°07'0 0.0
2017-Sep-07 08:29N 59°21' E 018°07'0 0.0
2017-Sep-07 07:59N 59°21' E 018°07'0 0.0
2017-Sep-07 07:30N 59°21' E 018°07'0 0.0
2017-Sep-07 07:00N 59°21' E 018°07'0 0.0
2017-Sep-07 06:24N 59°21' E 018°07'0 0.0
2017-Sep-07 06:00N 59°21' E 018°07'0 0.0
2017-Sep-07 05:30N 59°21' E 018°07'0 0.0
2017-Sep-07 04:53N 59°21' E 018°07'0 0.0
2017-Sep-07 04:29N 59°21' E 018°07'0 0.0
2017-Sep-07 03:53N 59°21' E 018°07'0 0.0
2017-Sep-07 03:26N 59°21' E 018°07'0 0.0
2017-Sep-07 02:59N 59°21' E 018°07'0 0.0
2017-Sep-07 02:29N 59°21' E 018°07'0 0.0
2017-Sep-07 01:59N 59°21' E 018°07'0 0.0
2017-Sep-07 01:29N 59°21' E 018°07'0 0.0
2017-Sep-07 00:59N 59°21' E 018°07'0 0.0
2017-Sep-07 00:29N 59°21' E 018°07'0 0.0
2017-Sep-06 23:59N 59°21' E 018°07'0 0.0
2017-Sep-06 23:29N 59°21' E 018°07'0 0.0
2017-Sep-06 22:59N 59°21' E 018°07'0 0.0
2017-Sep-06 22:29N 59°21' E 018°07'0 0.0
2017-Sep-06 21:59N 59°21' E 018°07'0 0.0
2017-Sep-06 21:29N 59°21' E 018°07'0 0.0
2017-Sep-06 20:59N 59°21' E 018°07'0 0.0
2017-Sep-06 20:29N 59°21' E 018°07'0 0.0
2017-Sep-06 20:00N 59°21' E 018°07'0 0.0
2017-Sep-06 19:30N 59°21' E 018°07'0 0.0
2017-Sep-06 18:59N 59°21' E 018°07'0 0.0
2017-Sep-06 18:29N 59°21' E 018°07'0 0.0
2017-Sep-06 17:59N 59°21' E 018°07'0 0.0
2017-Sep-06 17:29N 59°21' E 018°07'0 0.0
2017-Sep-06 16:59N 59°21' E 018°07'0 0.0
2017-Sep-06 16:29N 59°21' E 018°07'0 0.0
2017-Sep-06 15:59N 59°21' E 018°07'0 0.0
2017-Sep-06 15:29N 59°21' E 018°07'0 0.0
2017-Sep-06 14:59N 59°21' E 018°07'0 0.0
2017-Sep-06 14:29N 59°21' E 018°07'0 0.0
2017-Sep-06 13:59N 59°21' E 018°07'0 0.0
2017-Sep-06 13:29N 59°21' E 018°07'0 0.0
2017-Sep-06 12:59N 59°21' E 018°07'0 0.0
2017-Sep-06 12:29N 59°21' E 018°07'0 0.0
2017-Sep-06 11:59N 59°21' E 018°07'0 0.0
2017-Sep-06 11:29N 59°21' E 018°07'0 0.0
2017-Sep-06 10:58N 59°21' E 018°07'0 0.0
2017-Sep-06 10:28N 59°21' E 018°07'0 0.0
2017-Sep-06 10:00N 59°21' E 018°07'0 0.0
2017-Sep-06 09:30N 59°21' E 018°07'0 0.0
2017-Sep-06 09:00N 59°21' E 018°07'0 0.0
2017-Sep-06 08:30N 59°21' E 018°07'0 0.0
2017-Sep-06 08:00N 59°21' E 018°07'0 0.0
2017-Sep-06 07:30N 59°21' E 018°07'0 0.0
2017-Sep-06 07:00N 59°21' E 018°07'0 0.0
2017-Sep-06 06:30N 59°21' E 018°07'0 0.0
2017-Sep-06 06:00N 59°21' E 018°07'0 0.0
2017-Sep-06 05:27N 59°21' E 018°07'0 0.0
2017-Sep-06 05:00N 59°21' E 018°07'0 0.0
2017-Sep-06 04:30N 59°21' E 018°07'0 0.0
2017-Sep-06 04:00N 59°21' E 018°07'0 0.0
2017-Sep-06 03:30N 59°21' E 018°07'0 0.0
2017-Sep-06 03:00N 59°21' E 018°07'0 0.0
2017-Sep-06 02:30N 59°21' E 018°07'0 0.0
2017-Sep-06 02:00N 59°21' E 018°07'0 0.0
2017-Sep-06 01:30N 59°21' E 018°07'0 0.0
2017-Sep-06 01:00N 59°21' E 018°07'0 0.0
2017-Sep-06 00:30N 59°21' E 018°07'0 0.0
2017-Sep-06 00:00N 59°21' E 018°07'0 0.0
2017-Sep-05 23:30N 59°21' E 018°07'0 0.0
2017-Sep-05 23:00N 59°21' E 018°07'0 0.0
2017-Sep-05 22:30N 59°21' E 018°07'0 0.0
2017-Sep-05 21:57N 59°21' E 018°07'0 0.0
2017-Sep-05 21:30N 59°21' E 018°07'0 0.0
2017-Sep-05 21:00N 59°21' E 018°07'0 0.0
2017-Sep-05 20:28N 59°21' E 018°07'0 0.0
2017-Sep-05 19:58N 59°21' E 018°07'0 0.0
2017-Sep-05 19:28N 59°21' E 018°07'0 0.0
2017-Sep-05 18:58N 59°21' E 018°07'0 0.0
2017-Sep-05 18:28N 59°21' E 018°07'0 0.0
2017-Sep-05 17:58N 59°21' E 018°07'0 0.0
2017-Sep-05 17:19N 59°21' E 018°07'0 0.0
2017-Sep-05 16:56N 59°21' E 018°07'0 0.0
2017-Sep-05 16:26N 59°21' E 018°07'0 0.0
2017-Sep-05 15:56N 59°21' E 018°07'0 0.0
2017-Sep-05 15:20N 59°21' E 018°07'0 0.0
2017-Sep-05 14:59N 59°21' E 018°07'0 0.0
2017-Sep-05 14:26N 59°21' E 018°07'0 0.0
2017-Sep-05 13:59N 59°21' E 018°07'0 0.0
2017-Sep-05 13:29N 59°21' E 018°07'0 0.0
2017-Sep-05 12:59N 59°21' E 018°07'0 0.0
2017-Sep-05 12:29N 59°21' E 018°07'0 0.0
2017-Sep-05 12:00N 59°21' E 018°07'2 3.9
2017-Sep-05 11:31N 59°20' E 018°11'611.1
2017-Sep-05 11:01N 59°23' E 018°21'3 6.3
2017-Sep-05 10:30N 59°24' E 018°27'3 5.6
2017-Sep-05 10:00N 59°26' E 018°28'611.9
2017-Sep-05 09:29N 59°22' E 018°37'511.0
2017-Sep-05 09:01N 59°21' E 018°47'611.1
2017-Sep-05 08:31N 59°16' E 018°54'610.6
2017-Sep-05 07:58N 59°14' E 019°04'510.3
2017-Sep-05 07:30N 59°10' E 019°10'6 9.7
2017-Sep-05 06:55N 59°05' E 019°06'17 9.9
2017-Sep-05 05:09N 58°49' E 018°53'310.0
2017-Sep-05 04:48N 58°45' E 018°50'3 9.8
2017-Sep-05 04:30N 58°43' E 018°48'5 9.8
2017-Sep-05 03:57N 58°38' E 018°44'410.0
2017-Sep-05 03:30N 58°34' E 018°41'  
Track history (hours):
 
Tides and Currents Weather Stations Pressure Air Temp Water Temp Dewpoint Dewpoint Depression Visibility Wind Speed Wind Dir Waves Ship Positions

Koningsborg

Last reported at 2017-Sep-14 20:47 UTC. Time now 2017-Sep-23 07:44 UTC.
Position N 49°36' W 003°55'.
Warning: this ship's position is 8 days out of date.

Length 130 m; draft 7.7 m.

Type: Cargo ship. MMSI: 246388000.

Date/timePositionNaut miles runAvg speedWind from/ knotsBaromVisibWave heightAir tempDewpointWater temp
2017-Sep-14 20:47N 49°36' W 003°55'310.3
2017-Sep-14 20:30N 49°38' W 003°51'510.5
2017-Sep-14 20:00N 49°40' W 003°44'710.8
2017-Sep-14 19:19N 49°44' W 003°34'310.8
2017-Sep-14 19:00N 49°46' W 003°30'510.7
2017-Sep-14 18:30N 49°48' W 003°22'510.6
2017-Sep-14 18:00N 49°51' W 003°15'710.4
2017-Sep-14 17:22N 49°54' W 003°06'410.0
2017-Sep-14 17:00N 49°56' W 003°01'5 9.7
2017-Sep-14 16:30N 49°58' W 002°55'43 8.2
2017-Sep-14 11:15N 50°11' W 001°51'2 8.7
2017-Sep-14 11:00N 50°12' W 001°48'5 9.1
2017-Sep-14 10:28N 50°13' W 001°40'810.0
2017-Sep-14 09:38N 50°16' W 001°28'210.4
2017-Sep-14 09:29N 50°16' W 001°26'4311.2
2017-Sep-14 05:39N 50°28' W 000°21'210.4
2017-Sep-14 05:30N 50°29' W 000°19'510.1
2017-Sep-14 05:00N 50°30' W 000°12'5 9.7
2017-Sep-14 04:30N 50°32' W 000°04'5 9.2
2017-Sep-14 04:00N 50°33' E 000°03'4 9.0
2017-Sep-14 03:30N 50°34' E 000°10'4 8.6
2017-Sep-14 02:59N 50°35' E 000°16'4 8.4
2017-Sep-14 02:30N 50°36' E 000°23'4 8.4
2017-Sep-14 02:00N 50°37' E 000°29'4 8.8
2017-Sep-14 01:30N 50°39' E 000°36'5 9.1
2017-Sep-14 01:00N 50°41' E 000°42'5 9.6
2017-Sep-14 00:30N 50°44' E 000°48'510.1
2017-Sep-14 00:00N 50°47' E 000°54'510.6
2017-Sep-13 23:30N 50°50' E 001°01'911.1
2017-Sep-13 22:42N 50°56' E 001°12'211.2
2017-Sep-13 22:30N 50°57' E 001°15'611.1
2017-Sep-13 22:00N 51°01' E 001°21'510.6
2017-Sep-13 21:30N 51°04' E 001°28'5 9.7
2017-Sep-13 21:00N 51°07' E 001°33'4 9.0
2017-Sep-13 20:30N 51°10' E 001°39'4 8.7
2017-Sep-13 20:00N 51°13' E 001°44'4 8.6
2017-Sep-13 19:30N 51°17' E 001°48'4 8.6
2017-Sep-13 19:00N 51°21' E 001°50'4 8.7
2017-Sep-13 18:30N 51°25' E 001°53'4 8.7
2017-Sep-13 18:00N 51°29' E 001°56'4 8.8
2017-Sep-13 17:30N 51°33' E 001°59'5 9.1
2017-Sep-13 17:00N 51°37' E 002°02'5 9.7
2017-Sep-13 16:30N 51°41' E 002°05'510.2
2017-Sep-13 15:59N 51°46' E 002°08'  
2017-Sep-11 09:48N 57°47' E 010°30'3 9.2
2017-Sep-11 09:30N 57°48' E 010°35'4 8.9
2017-Sep-11 09:00N 57°48' E 010°43'5 9.8
2017-Sep-11 08:28N 57°47' E 010°53'5 9.9
2017-Sep-11 08:00N 57°45' E 011°01'5 9.8
2017-Sep-11 07:30N 57°43' E 011°09'5 9.6
2017-Sep-11 07:00N 57°41' E 011°18'510.5
2017-Sep-11 06:30N 57°39' E 011°26'611.5
2017-Sep-11 06:00N 57°36' E 011°36'5 9.0
2017-Sep-11 05:30N 57°39' E 011°43'3 4.9
2017-Sep-11 04:59N 57°40' E 011°47'0 0.0
2017-Sep-11 04:29N 57°40' E 011°47'0 0.0
2017-Sep-11 03:59N 57°40' E 011°47'0 0.1
2017-Sep-11 03:29N 57°40' E 011°47'0 0.0
2017-Sep-11 02:59N 57°40' E 011°47'0 0.0
2017-Sep-11 02:30N 57°40' E 011°47'0 0.0
2017-Sep-11 01:59N 57°40' E 011°47'0 0.0
2017-Sep-11 01:29N 57°40' E 011°47'0 0.0
2017-Sep-11 00:59N 57°40' E 011°47'0 0.0
2017-Sep-11 00:29N 57°40' E 011°47'0 0.0
2017-Sep-10 23:59N 57°40' E 011°47'0 0.1
2017-Sep-10 23:29N 57°40' E 011°47'2 4.9
2017-Sep-10 23:01N 57°39' E 011°43'510.3
2017-Sep-10 22:31N 57°35' E 011°39'4 8.7
2017-Sep-10 22:00N 57°30' E 011°38'611.6
2017-Sep-10 21:30N 57°24' E 011°38'611.4
2017-Sep-10 21:01N 57°19' E 011°39'611.5
2017-Sep-10 20:29N 57°13' E 011°39'511.2
2017-Sep-10 20:00N 57°07' E 011°40'610.9
2017-Sep-10 19:30N 57°02' E 011°44'11110.2
2017-Sep-10 08:39N 55°13' E 011°06'310.8
2017-Sep-10 08:23N 55°11' E 011°04'410.8
2017-Sep-10 08:01N 55°07' E 011°03'611.1
2017-Sep-10 07:31N 55°01' E 011°02'510.3
2017-Sep-10 07:00N 54°57' E 010°57'510.2
2017-Sep-10 06:31N 54°52' E 010°53'510.2
2017-Sep-10 06:00N 54°47' E 010°52'510.8
2017-Sep-10 05:30N 54°42' E 010°54'611.1
2017-Sep-10 05:00N 54°39' E 011°02'510.6
2017-Sep-10 04:31N 54°36' E 011°10'510.8
2017-Sep-10 04:00N 54°34' E 011°18'510.7
2017-Sep-10 03:31N 54°32' E 011°26'510.8
2017-Sep-10 03:01N 54°29' E 011°35'510.9
2017-Sep-10 02:31N 54°27' E 011°43'510.4
2017-Sep-10 02:00N 54°26' E 011°52'510.3
2017-Sep-10 01:31N 54°26' E 012°01'510.0
2017-Sep-10 01:01N 54°27' E 012°10'510.1
2017-Sep-10 00:31N 54°32' E 012°13'510.6
2017-Sep-10 00:01N 54°37' E 012°16'5610.6
2017-Sep-09 18:44N 55°01' E 013°44'210.5
2017-Sep-09 18:30N 55°01' E 013°48'510.3
2017-Sep-09 18:00N 55°03' E 013°57'510.2
2017-Sep-09 17:30N 55°05' E 014°04'510.4
2017-Sep-09 17:00N 55°09' E 014°11'510.7
2017-Sep-09 16:30N 55°13' E 014°17'510.5
2017-Sep-09 16:01N 55°17' E 014°23'510.6
2017-Sep-09 15:30N 55°21' E 014°29'510.5
2017-Sep-09 15:00N 55°25' E 014°35'510.3
2017-Sep-09 14:30N 55°28' E 014°42'510.6
2017-Sep-09 14:00N 55°31' E 014°50'611.0
2017-Sep-09 13:30N 55°34' E 014°58'611.1
2017-Sep-09 13:00N 55°37' E 015°07'511.0
2017-Sep-09 12:31N 55°39' E 015°15'510.8
2017-Sep-09 12:01N 55°42' E 015°24'510.8
2017-Sep-09 11:31N 55°45' E 015°32'510.9
2017-Sep-09 11:01N 55°47' E 015°40'511.0
2017-Sep-09 10:31N 55°50' E 015°48'611.3
2017-Sep-09 10:01N 55°53' E 015°57'611.2
2017-Sep-09 09:31N 55°56' E 016°06'511.0
2017-Sep-09 09:01N 55°59' E 016°14'611.1
2017-Sep-09 08:30N 56°02' E 016°23'611.2
2017-Sep-09 08:01N 56°05' E 016°31'510.9
2017-Sep-09 07:31N 56°08' E 016°39'20510.2
2017-Sep-08 11:22N 59°23' E 018°35'410.8
2017-Sep-08 11:00N 59°26' E 018°29'2 4.9
2017-Sep-08 10:30N 59°24' E 018°26'3 5.7
2017-Sep-08 10:00N 59°22' E 018°24'5 9.7
2017-Sep-08 09:30N 59°21' E 018°14'4 7.3
2017-Sep-08 09:01N 59°21' E 018°07'0 0.0
2017-Sep-08 08:29N 59°21' E 018°07'0 0.0
2017-Sep-08 07:59N 59°21' E 018°07'0 0.0
2017-Sep-08 07:30N 59°21' E 018°07'0 0.0
2017-Sep-08 07:00N 59°21' E 018°07'0 0.0
2017-Sep-08 06:21N 59°21' E 018°07'0 0.0
2017-Sep-08 05:59N 59°21' E 018°07'0 0.0
2017-Sep-08 05:28N 59°21' E 018°07'0 0.0
2017-Sep-08 04:55N 59°21' E 018°07'0 0.0
2017-Sep-08 04:19N 59°21' E 018°07'0 0.0
2017-Sep-08 03:49N 59°21' E 018°07'0 0.0
2017-Sep-08 03:22N 59°21' E 018°07'0 0.0
2017-Sep-08 02:58N 59°21' E 018°07'0 0.0
2017-Sep-08 02:22N 59°21' E 018°07'0 0.0
2017-Sep-08 01:59N 59°21' E 018°07'0 0.0
2017-Sep-08 01:29N 59°21' E 018°07'0 0.0
2017-Sep-08 00:59N 59°21' E 018°07'0 0.0
2017-Sep-08 00:29N 59°21' E 018°07'0 0.0
2017-Sep-07 23:59N 59°21' E 018°07'0 0.0
2017-Sep-07 23:29N 59°21' E 018°07'0 0.0
2017-Sep-07 22:59N 59°21' E 018°07'0 0.0
2017-Sep-07 22:29N 59°21' E 018°07'0 0.0
2017-Sep-07 21:59N 59°21' E 018°07'0 0.0
2017-Sep-07 21:29N 59°21' E 018°07'0 0.0
2017-Sep-07 20:59N 59°21' E 018°07'0 0.0
2017-Sep-07 20:29N 59°21' E 018°07'0 0.0
2017-Sep-07 19:59N 59°21' E 018°07'0 0.0
2017-Sep-07 19:28N 59°21' E 018°07'0 0.0
2017-Sep-07 18:58N 59°21' E 018°07'0 0.0
2017-Sep-07 18:28N 59°21' E 018°07'0 0.0
2017-Sep-07 17:59N 59°21' E 018°07'0 0.0
2017-Sep-07 17:17N 59°21' E 018°07'0 0.0
2017-Sep-07 17:01N 59°21' E 018°07'0 0.0
2017-Sep-07 16:30N 59°21' E 018°07'0 0.0
2017-Sep-07 16:00N 59°21' E 018°07'0 0.0
2017-Sep-07 15:25N 59°21' E 018°07'0 0.0
2017-Sep-07 15:00N 59°21' E 018°07'0 0.0
2017-Sep-07 14:13N 59°21' E 018°07'0 0.0
2017-Sep-07 13:55N 59°21' E 018°07'0 0.0
2017-Sep-07 13:25N 59°21' E 018°07'0 0.0
2017-Sep-07 12:58N 59°21' E 018°07'0 0.0
2017-Sep-07 12:22N 59°21' E 018°07'0 0.0
2017-Sep-07 11:52N 59°21' E 018°07'0 0.0
2017-Sep-07 11:28N 59°21' E 018°07'0 0.0
2017-Sep-07 10:52N 59°21' E 018°07'0 0.0
2017-Sep-07 10:28N 59°21' E 018°07'0 0.0
2017-Sep-07 09:58N 59°21' E 018°07'0 0.0
2017-Sep-07 09:22N 59°21' E 018°07'0 0.0
2017-Sep-07 08:58N 59°21' E 018°07'0 0.0
2017-Sep-07 08:29N 59°21' E 018°07'0 0.0
2017-Sep-07 07:59N 59°21' E 018°07'0 0.0
2017-Sep-07 07:30N 59°21' E 018°07'0 0.0
2017-Sep-07 07:00N 59°21' E 018°07'0 0.0
2017-Sep-07 06:24N 59°21' E 018°07'0 0.0
2017-Sep-07 06:00N 59°21' E 018°07'0 0.0
2017-Sep-07 05:30N 59°21' E 018°07'0 0.0
2017-Sep-07 04:53N 59°21' E 018°07'0 0.0
2017-Sep-07 04:29N 59°21' E 018°07'0 0.0
2017-Sep-07 03:53N 59°21' E 018°07'0 0.0
2017-Sep-07 03:26N 59°21' E 018°07'0 0.0
2017-Sep-07 02:59N 59°21' E 018°07'0 0.0
2017-Sep-07 02:29N 59°21' E 018°07'0 0.0
2017-Sep-07 01:59N 59°21' E 018°07'0 0.0
2017-Sep-07 01:29N 59°21' E 018°07'0 0.0
2017-Sep-07 00:59N 59°21' E 018°07'0 0.0
2017-Sep-07 00:29N 59°21' E 018°07'0 0.0
2017-Sep-06 23:59N 59°21' E 018°07'0 0.0
2017-Sep-06 23:29N 59°21' E 018°07'0 0.0
2017-Sep-06 22:59N 59°21' E 018°07'0 0.0
2017-Sep-06 22:29N 59°21' E 018°07'0 0.0
2017-Sep-06 21:59N 59°21' E 018°07'0 0.0
2017-Sep-06 21:29N 59°21' E 018°07'0 0.0
2017-Sep-06 20:59N 59°21' E 018°07'0 0.0
2017-Sep-06 20:29N 59°21' E 018°07'0 0.0
2017-Sep-06 20:00N 59°21' E 018°07'0 0.0
2017-Sep-06 19:30N 59°21' E 018°07'0 0.0
2017-Sep-06 18:59N 59°21' E 018°07'0 0.0
2017-Sep-06 18:29N 59°21' E 018°07'0 0.0
2017-Sep-06 17:59N 59°21' E 018°07'0 0.0
2017-Sep-06 17:29N 59°21' E 018°07'0 0.0
2017-Sep-06 16:59N 59°21' E 018°07'0 0.0
2017-Sep-06 16:29N 59°21' E 018°07'0 0.0
2017-Sep-06 15:59N 59°21' E 018°07'0 0.0
2017-Sep-06 15:29N 59°21' E 018°07'0 0.0
2017-Sep-06 14:59N 59°21' E 018°07'0 0.0
2017-Sep-06 14:29N 59°21' E 018°07'0 0.0
2017-Sep-06 13:59N 59°21' E 018°07'0 0.0
2017-Sep-06 13:29N 59°21' E 018°07'0 0.0
2017-Sep-06 12:59N 59°21' E 018°07'0 0.0
2017-Sep-06 12:29N 59°21' E 018°07'0 0.0
2017-Sep-06 11:59N 59°21' E 018°07'0 0.0
2017-Sep-06 11:29N 59°21' E 018°07'0 0.0
2017-Sep-06 10:58N 59°21' E 018°07'0 0.0
2017-Sep-06 10:28N 59°21' E 018°07'0 0.0
2017-Sep-06 10:00N 59°21' E 018°07'0 0.0
2017-Sep-06 09:30N 59°21' E 018°07'0 0.0
2017-Sep-06 09:00N 59°21' E 018°07'0 0.0
2017-Sep-06 08:30N 59°21' E 018°07'0 0.0
2017-Sep-06 08:00N 59°21' E 018°07'0 0.0
2017-Sep-06 07:30N 59°21' E 018°07'0 0.0
2017-Sep-06 07:00N 59°21' E 018°07'0 0.0
2017-Sep-06 06:30N 59°21' E 018°07'0 0.0
2017-Sep-06 06:00N 59°21' E 018°07'0 0.0
2017-Sep-06 05:27N 59°21' E 018°07'0 0.0
2017-Sep-06 05:00N 59°21' E 018°07'0 0.0
2017-Sep-06 04:30N 59°21' E 018°07'0 0.0
2017-Sep-06 04:00N 59°21' E 018°07'0 0.0
2017-Sep-06 03:30N 59°21' E 018°07'0 0.0
2017-Sep-06 03:00N 59°21' E 018°07'0 0.0
2017-Sep-06 02:30N 59°21' E 018°07'0 0.0
2017-Sep-06 02:00N 59°21' E 018°07'0 0.0
2017-Sep-06 01:30N 59°21' E 018°07'0 0.0
2017-Sep-06 01:00N 59°21' E 018°07'0 0.0
2017-Sep-06 00:30N 59°21' E 018°07'0 0.0
2017-Sep-06 00:00N 59°21' E 018°07'0 0.0
2017-Sep-05 23:30N 59°21' E 018°07'0 0.0
2017-Sep-05 23:00N 59°21' E 018°07'0 0.0
2017-Sep-05 22:30N 59°21' E 018°07'0 0.0
2017-Sep-05 21:57N 59°21' E 018°07'0 0.0
2017-Sep-05 21:30N 59°21' E 018°07'0 0.0
2017-Sep-05 21:00N 59°21' E 018°07'0 0.0
2017-Sep-05 20:28N 59°21' E 018°07'0 0.0
2017-Sep-05 19:58N 59°21' E 018°07'0 0.0
2017-Sep-05 19:28N 59°21' E 018°07'0 0.0
2017-Sep-05 18:58N 59°21' E 018°07'0 0.0
2017-Sep-05 18:28N 59°21' E 018°07'0 0.0
2017-Sep-05 17:58N 59°21' E 018°07'0 0.0
2017-Sep-05 17:19N 59°21' E 018°07'0 0.0
2017-Sep-05 16:56N 59°21' E 018°07'0 0.0
2017-Sep-05 16:26N 59°21' E 018°07'0 0.0
2017-Sep-05 15:56N 59°21' E 018°07'0 0.0
2017-Sep-05 15:20N 59°21' E 018°07'0 0.0
2017-Sep-05 14:59N 59°21' E 018°07'0 0.0
2017-Sep-05 14:26N 59°21' E 018°07'0 0.0
2017-Sep-05 13:59N 59°21' E 018°07'0 0.0
2017-Sep-05 13:29N 59°21' E 018°07'0 0.0
2017-Sep-05 12:59N 59°21' E 018°07'0 0.0
2017-Sep-05 12:29N 59°21' E 018°07'0 0.0
2017-Sep-05 12:00N 59°21' E 018°07'2 3.9
2017-Sep-05 11:31N 59°20' E 018°11'611.1
2017-Sep-05 11:01N 59°23' E 018°21'3 6.3
2017-Sep-05 10:30N 59°24' E 018°27'3 5.6
2017-Sep-05 10:00N 59°26' E 018°28'611.9
2017-Sep-05 09:29N 59°22' E 018°37'511.0
2017-Sep-05 09:01N 59°21' E 018°47'611.1
2017-Sep-05 08:31N 59°16' E 018°54'610.6
2017-Sep-05 07:58N 59°14' E 019°04'510.3
2017-Sep-05 07:30N 59°10' E 019°10'6 9.7
2017-Sep-05 06:55N 59°05' E 019°06'17 9.9
2017-Sep-05 05:09N 58°49' E 018°53'310.0
2017-Sep-05 04:48N 58°45' E 018°50'3 9.8
2017-Sep-05 04:30N 58°43' E 018°48'5 9.8
2017-Sep-05 03:57N 58°38' E 018°44'410.0
2017-Sep-05 03:30N 58°34' E 018°41'  

Dump ship's entire track history